Custom file does not exist C:\wdisplay\webfiles\testtags.txt Borgafjälls vädersida - Nearby METAR Reports

Nearby METAR Reports

 

KSJC - San Jose, California, USA
Distance from station: NO 14km
Uppdaterad: 29/09/2020 15:53
Genommulet
Genommulet
 Vind frn calm
Vind: Vindstilla
Temperatur: 17°C
Daggpunkt: 12°C
Luftfuktighet: 73%
Barometer: 1015.2 hPa
Clouds: Genommulet
Visibility: 16 km
Cloud details: Few Clouds 366 m
vervgande molnigt 1128 m
Genommulet 1981 m
2020/09/29 13:53 KSJC 291353Z 00000KT 10SM FEW012 BKN037 OVC065 17/12 A2998 RMK AO2 SLP152 FU FEW012 FU BKN037 FU OVC065 T01720122
KNUQ - Moffett Nas/Mtn, California, USA
Distance from station: N 14km
Uppdaterad: 29/09/2020 15:55
vervgande molnigt
vervgande molnigt
 Vind frn calm
Vind: Vindstilla
Temperatur: 17°C
Daggpunkt: 15°C
Luftfuktighet: 88%
Barometer: 1015.2 hPa
Clouds: vervgande molnigt
Visibility: 16 km
Cloud details: Delvis molnigt 457 m
vervgande molnigt 610 m
vervgande molnigt 762 m
2020/09/29 13:55 KNUQ 291355Z AUTO 00000KT 10SM SCT015 BKN020 BKN025 17/15 A2998 RMK AO2
 
KPAO - Palo Alto, California, USA
Distance from station: NNV 23km
Uppdaterad: 29/09/2020 03:47
NOT Current
Smoke, Klart
Smoke, Klart
 Vind frn NNV
Vind: NNV 15 km/h
Temperatur: 23°C
Daggpunkt: 16°C
Luftfuktighet: 65%
Barometer: 1011.2 hPa
Summering: Smoke
Clouds: Klart
Visibility: 16 km
2020/09/29 01:47 KPAO 290147Z 33008KT 10SM FU SKC 23/16 A2986 RMK LAST
KRHV - San Jose/Reid, California, USA
Distance from station: ONO 19km
Uppdaterad: 29/09/2020 16:00
Smoke, Klart
Smoke, Klart
 Vind frn calm
Vind: Vindstilla
Temperatur: 17°C
Daggpunkt: 11°C
Luftfuktighet: 68%
Barometer: 1015.6 hPa
Summering: Smoke
Clouds: Klart
Visibility: 16 km
2020/09/29 14:00 KRHV 291400Z 00000KT 10SM FU SKC 17/11 A2999
 
KOAK - Oakland, California, USA
Distance from station: NNV 50km
Uppdaterad: 29/09/2020 15:53
Few Clouds
Few Clouds
 Vind frn NNV
Vind: NNV 7 km/h
Temperatur: 17°C
Daggpunkt: 14°C
Luftfuktighet: 83%
Barometer: 1015.6 hPa
Clouds: Few Clouds
Visibility: 16 km
Cloud details: Few Clouds 152 m
Few Clouds 4572 m
2020/09/29 13:53 KOAK 291353Z 34004KT 10SM FEW005 FEW150 17/14 A2999 RMK AO2 SLP154 FU FEW150 T01670139
KSQL - San Carlos Airpo, California, USA
Distance from station: NV 34km
Uppdaterad: 29/09/2020 16:00
Few Clouds
Few Clouds
 Vind frn varies
Vind: varies 6 km/h
Temperatur: 17°C
Daggpunkt: 14°C
Luftfuktighet: 83%
Barometer: 1013.2 hPa
Clouds: Few Clouds
Visibility: 16 km
Cloud details: Few Clouds 6096 m
2020/09/29 14:00 KSQL 291400Z VRB03KT 10SM FEW200 17/14 A2992
 
KSFO - San Francisco, California, USA
Distance from station: NV 49km
Uppdaterad: 29/09/2020 15:56
vervgande molnigt
vervgande molnigt
 Vind frn VNV
Vind: VNV 17 km/h
Temperatur: 14°C
Daggpunkt: 12°C
Luftfuktighet: 88%
Barometer: 1015.6 hPa
Clouds: vervgande molnigt
Visibility: 16 km
Cloud details: Few Clouds 183 m
vervgande molnigt 6096 m
2020/09/29 13:56 KSFO 291356Z 30009KT 10SM FEW006 BKN200 14/12 A2999 RMK AO2 SLP154 T01440122
KE16 - San Martin, California, USA
Distance from station: OSO 43km
Uppdaterad: 29/09/2020 16:10
Klart
Klart
 Vind frn SSO
Vind: SSO 6 km/h
Temperatur: 13°C
Daggpunkt: 12°C
Luftfuktighet: 94%
Barometer: 1016.6 hPa
Clouds: Klart
Visibility: 16 km
2020/09/29 14:10 KE16 291410Z AUTO 16003KT 10SM CLR 13/12 A3002 RMK AO2 PWINO PNO
 
KWVI - Watsonville, California, USA
Distance from station: SSO 44km
Uppdaterad: 29/09/2020 16:02
Mist, Genommulet
Mist, Genommulet
 Vind frn calm
Vind: Vindstilla
Temperatur: 12°C
Daggpunkt: 12°C
Luftfuktighet: 100%
Barometer: 1016.6 hPa
Summering: Mist
Clouds: Genommulet
Visibility: 1.2 km
Cloud details: Genommulet 61 m
2020/09/29 14:02 KWVI 291402Z AUTO 00000KT 3/4SM BR VV002 12/12 A3002 RMK AO2 T01220122
KHAF - Half Moon Bay, California, USA
Distance from station: VNV 50km
Uppdaterad: 29/09/2020 16:15
Mist, Genommulet
Mist, Genommulet
 Vind frn SO
Vind: SO 6 km/h
Temperatur: 13°C
Daggpunkt: 13°C
Luftfuktighet: 100%
Barometer: 1016.6 hPa
Summering: Mist
Clouds: Genommulet
Visibility: 2.4 km
Cloud details: Genommulet 91 m
2020/09/29 14:15 KHAF 291415Z AUTO 13003KT 1 1/2SM BR OVC003 13/13 A3002 RMK AO2
 
KHWD - Hayward, California, USA
Distance from station: N 44km
Uppdaterad: 29/09/2020 15:54
Klart
Klart
 Vind frn calm
Vind: Vindstilla
Temperatur: 16°C
Daggpunkt: 12°C
Luftfuktighet: 77%
Barometer: 1015.2 hPa
Clouds: Klart
Visibility: 16 km
2020/09/29 13:54 KHWD 291354Z 00000KT 10SM CLR 16/12 A2998 RMK AO2 SLP161 T01610122
KLVK - Livermore, California, USA
Distance from station: NNO 51km
Uppdaterad: 29/09/2020 15:53
Klart
Klart
 Vind frn calm
Vind: Vindstilla
Temperatur: 17°C
Daggpunkt: 6°C
Luftfuktighet: 49%
Barometer: 1015.2 hPa
Clouds: Klart
Visibility: 16 km
2020/09/29 13:53 KLVK 291353Z AUTO 00000KT 10SM CLR 17/06 A2998 RMK AO2 SLP147 T01670061